Time;durP1;ratioP1;P1;durP2;ratioP2;P2;SDS_P1;SDS_P2;PMS_P1;PMS_P2;Temp;Humidity;BMP_temperature;BMP_pressure;BME280_temperature;BME280_humidity;BME280_pressure;Samples;Min_cycle;Max_cycle;Signal;HPM_P1;HPM_P2
2023/08/18 00:01:29;;;;;;;69.93;37.75;;;17.20;99.90;;;;;;5052797;28;20060;-72
2023/08/18 00:03:56;;;;;;;68.78;37.20;;;;;;;;;;5052479;28;20021;-72
2023/08/18 00:06:22;;;;;;;71.03;37.85;;;;;;;;;;5053209;28;20032;-73
2023/08/18 00:08:48;;;;;;;75.90;38.50;;;;;;;;;;5053998;28;20079;-73
2023/08/18 00:11:14;;;;;;;68.78;36.97;;;;;;;;;;5056860;28;20025;-72
2023/08/18 00:13:40;;;;;;;59.22;33.05;;;;;;;;;;5056923;28;20475;-72
2023/08/18 00:16:06;;;;;;;58.85;34.15;;;;;;;;;;5056869;28;20033;-72
2023/08/18 00:18:32;;;;;;;65.10;34.72;;;;;;;;;;5056668;28;20035;-72
2023/08/18 00:20:58;;;;;;;67.38;35.03;;;;;;;;;;5056644;28;20029;-72
2023/08/18 00:23:24;;;;;;;71.10;37.08;;;;;;;;;;5056434;28;20375;-72
2023/08/18 00:25:50;;;;;;;65.05;34.92;;;;;;;;;;5056482;28;20021;-72
2023/08/18 00:28:16;;;;;;;64.25;35.78;;;;;;;;;;5056628;28;20478;-72
2023/08/18 00:30:43;;;;;;;65.38;34.83;;;;;;;;;;5056121;28;20026;-72
2023/08/18 00:33:09;;;;;;;63.53;35.10;;;;;;;;;;5056353;28;20025;-72
2023/08/18 00:35:35;;;;;;;60.97;34.15;;;;;;;;;;5056091;28;20454;-72
2023/08/18 00:38:01;;;;;;;60.72;32.90;;;;;;;;;;5056208;28;20060;-72
2023/08/18 00:40:27;;;;;;;62.85;34.38;;;;;;;;;;5056331;28;20413;-72
2023/08/18 00:42:53;;;;;;;73.60;36.78;;;;;;;;;;5055500;28;20083;-72
2023/08/18 00:45:19;;;;;;;76.47;38.15;;;;;;;;;;5056296;28;20025;-72
2023/08/18 00:47:45;;;;;;;70.15;36.53;;;17.30;99.90;;;;;;5056436;28;20079;-72
2023/08/18 00:50:12;;;;;;;70.88;37.50;;;;;;;;;;5056161;28;20029;-72
2023/08/18 00:52:39;;;;;;;73.78;39.42;;;;;;;;;;5056109;28;20078;-72
2023/08/18 00:55:06;;;;;;;68.60;35.05;;;;;;;;;;5055452;28;20037;-72
2023/08/18 00:57:32;;;;;;;73.50;38.33;;;;;;;;;;5056259;28;20082;-72
2023/08/18 00:59:58;;;;;;;75.95;37.83;;;;;;;;;;5055841;28;20052;-72
2023/08/18 01:02:25;;;;;;;72.88;38.85;;;;;;;;;;5054991;28;20226;-72
2023/08/18 01:04:52;;;;;;;72.97;36.92;;;;;;;;;;5055805;28;20104;-72
2023/08/18 01:07:18;;;;;;;81.82;39.97;;;;;;;;;;5055434;28;20025;-77
2023/08/18 01:09:45;;;;;;;78.88;39.00;;;;;;;;;;5055714;28;20032;-72
2023/08/18 01:12:15;;;;;;;81.75;39.30;;;;;;;;;;5055617;28;20029;-72
2023/08/18 01:14:57;;;;;;;73.93;37.63;;;;;;;;;;5055682;28;20033;-72
2023/08/18 01:17:28;;;;;;;70.25;36.90;;;;;;;;;;5055717;28;20108;-72
2023/08/18 01:19:54;;;;;;;69.93;36.53;;;17.20;99.90;;;;;;5055627;28;20467;-72
2023/08/18 01:22:20;;;;;;;73.22;36.58;;;;;;;;;;5055429;28;20025;-72
2023/08/18 01:24:46;;;;;;;78.88;38.08;;;;;;;;;;5055353;28;20112;-72
2023/08/18 01:27:12;;;;;;;73.60;36.78;;;;;;;;;;5055806;28;20517;-72
2023/08/18 01:29:38;;;;;;;85.60;39.67;;;;;;;;;;5055351;28;20025;-72
2023/08/18 01:32:05;;;;;;;91.28;41.30;;;;;;;;;;5054664;28;20034;-72
2023/08/18 01:34:34;;;;;;;88.95;40.90;;;17.10;99.90;;;;;;5054341;28;20025;-72
2023/08/18 01:37:02;;;;;;;92.28;41.17;;;17.10;99.90;;;;;;5055250;28;20029;-72
2023/08/18 01:39:29;;;;;;;88.90;40.65;;;17.10;99.90;;;;;;5054965;28;20029;-72
2023/08/18 01:41:55;;;;;;;92.18;40.92;;;17.00;99.90;;;;;;5055409;28;20032;-72
2023/08/18 01:44:21;;;;;;;91.93;41.17;;;17.10;99.90;;;;;;5054648;28;20462;-72
2023/08/18 01:46:47;;;;;;;79.88;38.17;;;17.00;99.90;;;;;;5054319;28;20102;-72
2023/08/18 01:49:13;;;;;;;83.95;38.08;;;17.10;99.90;;;;;;5054636;28;20036;-72
2023/08/18 01:51:39;;;;;;;89.15;39.65;;;17.10;99.90;;;;;;5054781;28;20031;-72
2023/08/18 01:54:05;;;;;;;85.00;39.75;;;17.00;99.90;;;;;;5054905;28;20033;-72
2023/08/18 01:56:31;;;;;;;82.35;39.28;;;;;;;;;;5054656;28;20028;-72
2023/08/18 01:58:57;;;;;;;81.65;39.97;;;;;;;;;;5054821;28;20072;-72
2023/08/18 02:01:23;;;;;;;85.35;38.63;;;;;;;;;;5054237;28;20056;-72
2023/08/18 02:03:49;;;;;;;75.13;35.55;;;;;;;;;;5054456;28;20475;-73
2023/08/18 02:06:15;;;;;;;94.72;40.97;;;;;;;;;;5054565;28;20032;-72
2023/08/18 02:08:41;;;;;;;94.68;41.20;;;;;;;;;;5054712;28;20467;-72
2023/08/18 02:11:07;;;;;;;92.85;41.97;;;;;;;;;;5054670;28;20021;-72
2023/08/18 02:13:33;;;;;;;90.35;39.50;;;;;;;;;;5054549;28;20029;-72
2023/08/18 02:15:59;;;;;;;97.55;41.08;;;;;;;;;;5054711;28;20433;-72
2023/08/18 02:18:25;;;;;;;86.18;37.40;;;;;;;;;;5054458;28;20083;-72
2023/08/18 02:20:55;;;;;;;80.68;36.67;;;;;;;;;;5054047;28;20111;-72
2023/08/18 02:23:21;;;;;;;78.85;35.50;;;17.20;99.90;;;;;;5054235;28;20056;-72
2023/08/18 02:25:47;;;;;;;80.72;36.45;;;;;;;;;;5054096;28;20486;-72
2023/08/18 02:28:14;;;;;;;88.40;38.78;;;;;;;;;;5054261;28;20032;-72
2023/08/18 02:30:40;;;;;;;86.80;37.53;;;;;;;;;;5054573;28;20063;-72
2023/08/18 02:33:06;;;;;;;87.07;39.17;;;;;;;;;;5053797;28;20021;-72
2023/08/18 02:35:32;;;;;;;100.22;41.17;;;;;;;;;;5054155;28;20029;-72
2023/08/18 02:37:58;;;;;;;101.28;42.40;;;;;;;;;;5054219;28;20032;-72
2023/08/18 02:40:24;;;;;;;95.72;40.95;;;;;;;;;;5054471;28;20056;-72
2023/08/18 02:42:50;;;;;;;90.13;39.47;;;;;;;;;;5053969;28;20029;-73
2023/08/18 02:45:16;;;;;;;95.20;40.55;;;;;;;;;;5054033;28;20470;-73
2023/08/18 02:47:42;;;;;;;108.30;43.38;;;;;;;;;;5053975;28;20029;-72
2023/08/18 02:50:08;;;;;;;102.03;41.53;;;;;;;;;;5053942;28;20024;-74
2023/08/18 02:52:34;;;;;;;104.78;42.80;;;;;;;;;;5053813;28;20017;-72
2023/08/18 02:55:00;;;;;;;108.10;43.78;;;;;;;;;;5054021;28;20048;-72
2023/08/18 02:57:26;;;;;;;99.85;40.92;;;;;;;;;;5053855;28;20474;-72
2023/08/18 02:59:52;;;;;;;109.78;42.75;;;;;;;;;;5053982;28;20029;-72
2023/08/18 03:02:18;;;;;;;96.07;41.63;;;;;;;;;;5052803;28;20088;-72
2023/08/18 03:04:44;;;;;;;96.72;40.80;;;;;;;;;;5054171;28;20017;-72
2023/08/18 03:07:10;;;;;;;101.68;40.58;;;;;;;;;;5053913;28;20036;-72
2023/08/18 03:09:36;;;;;;;104.93;41.67;;;;;;;;;;5053496;28;20025;-72
2023/08/18 03:12:02;;;;;;;104.90;42.13;;;;;;;;;;5053611;28;20017;-72
2023/08/18 03:14:28;;;;;;;103.32;40.08;;;;;;;;;;5054023;28;20414;-72
2023/08/18 03:16:54;;;;;;;104.85;42.65;;;;;;;;;;5053559;28;20029;-74
2023/08/18 03:19:20;;;;;;;95.97;40.28;;;;;;;;;;5053915;28;20083;-72
2023/08/18 03:21:46;;;;;;;97.30;38.80;;;;;;;;;;5052825;28;20039;-73
2023/08/18 03:24:13;;;;;;;104.03;39.20;;;;;;;;;;5053490;28;20029;-73
2023/08/18 03:26:39;;;;;;;92.35;38.88;;;;;;;;;;5053457;28;20025;-72
2023/08/18 03:29:05;;;;;;;95.60;37.83;;;;;;;;;;5053569;28;20029;-72
2023/08/18 03:31:31;;;;;;;96.88;37.28;;;;;;;;;;5053330;28;20060;-72
2023/08/18 03:33:57;;;;;;;95.47;37.22;;;;;;;;;;5053563;28;20032;-72
2023/08/18 03:36:23;;;;;;;97.25;37.50;;;;;;;;;;5053464;28;20049;-72
2023/08/18 03:38:49;;;;;;;98.38;38.45;;;;;;;;;;5053404;28;20037;-72
2023/08/18 03:41:15;;;;;;;99.63;38.42;;;;;;;;;;5053555;28;20033;-72
2023/08/18 03:43:41;;;;;;;108.28;40.83;;;;;;;;;;5053730;28;20028;-73
2023/08/18 03:46:22;;;;;;;101.10;39.15;;;;;;;;;;5057413;28;20029;-72
2023/08/18 03:48:49;;;;;;;107.35;39.80;;;;;;;;;;5057162;28;20021;-72
2023/08/18 03:51:15;;;;;;;100.22;39.92;;;;;;;;;;5057091;28;20439;-72
2023/08/18 03:53:41;;;;;;;112.47;41.13;;;;;;;;;;5057520;28;20471;-72
2023/08/18 03:56:07;;;;;;;83.90;35.47;;;;;;;;;;5057129;28;20087;-72
2023/08/18 03:58:33;;;;;;;100.25;37.88;;;;;;;;;;5057416;28;20475;-73
2023/08/18 04:01:01;;;;;;;92.28;38.20;;;;;;;;;;5056582;28;20045;-73
2023/08/18 04:03:27;;;;;;;95.63;36.90;;;;;;;;;;5056759;28;20112;-72
2023/08/18 04:05:53;;;;;;;98.22;37.72;;;17.20;99.90;;;;;;5056991;28;20104;-72
2023/08/18 04:08:19;;;;;;;90.10;36.40;;;17.20;99.90;;;;;;5057112;28;20490;-72
2023/08/18 04:10:44;;;;;;;99.25;36.15;;;17.20;99.90;;;;;;5057178;28;20032;-72
2023/08/18 04:13:11;;;;;;;90.07;36.50;;;;;;;;;;5057132;28;20039;-72
2023/08/18 04:15:37;;;;;;;104.55;36.17;;;;;;;;;;5056876;28;20025;-73
2023/08/18 04:18:03;;;;;;;90.85;34.58;;;;;;;;;;5056378;28;20199;-72
2023/08/18 04:20:29;;;;;;;93.35;36.58;;;17.20;99.90;;;;;;5056375;28;20029;-73
2023/08/18 04:22:55;;;;;;;98.20;36.67;;;17.20;99.90;;;;;;5056168;28;20033;-73
2023/08/18 04:25:20;;;;;;;109.30;39.47;;;17.10;99.90;;;;;;5056594;28;20530;-72
2023/08/18 04:27:46;;;;;;;119.45;41.25;;;17.10;99.90;;;;;;5056306;28;20079;-73
2023/08/18 04:30:12;;;;;;;127.25;42.60;;;17.10;99.90;;;;;;5056490;28;20339;-72
2023/08/18 04:32:38;;;;;;;113.50;42.40;;;17.10;99.90;;;;;;5056342;28;20078;-72
2023/08/18 04:35:04;;;;;;;106.97;38.80;;;17.10;99.90;;;;;;5056089;28;20416;-72
2023/08/18 04:37:30;;;;;;;104.60;38.63;;;17.10;99.90;;;;;;5055910;28;20051;-72
2023/08/18 04:39:55;;;;;;;101.90;38.60;;;17.00;99.90;;;;;;5056416;28;20056;-72
2023/08/18 04:42:21;;;;;;;109.40;39.20;;;17.10;99.90;;;;;;5056208;28;20071;-72
2023/08/18 04:44:47;;;;;;;107.88;39.40;;;17.10;99.90;;;;;;5056313;28;20028;-73
2023/08/18 04:47:12;;;;;;;107.68;40.03;;;17.10;99.90;;;;;;5056111;28;20021;-73
2023/08/18 04:49:38;;;;;;;96.28;36.80;;;17.10;99.90;;;;;;5056355;28;20029;-72
2023/08/18 04:52:05;;;;;;;84.63;35.22;;;17.10;99.90;;;;;;5056452;28;20463;-73
2023/08/18 04:54:31;;;;;;;76.53;33.08;;;17.10;99.90;;;;;;5055976;28;20029;-73
2023/08/18 04:56:59;;;;;;;82.50;34.85;;;17.10;99.90;;;;;;5056372;28;20036;-72
2023/08/18 04:59:26;;;;;;;91.25;34.50;;;17.10;99.90;;;;;;5055823;28;20474;-72
2023/08/18 05:01:52;;;;;;;81.95;35.30;;;17.20;99.90;;;;;;5055484;28;20084;-73
2023/08/18 05:04:18;;;;;;;87.90;36.05;;;17.20;99.90;;;;;;5055819;28;20086;-73
2023/08/18 05:06:43;;;;;;;107.57;39.20;;;17.10;99.90;;;;;;5054865;28;20017;-72
2023/08/18 05:09:09;;;;;;;100.78;37.65;;;17.10;99.90;;;;;;5056001;28;20036;-72
2023/08/18 05:11:35;;;;;;;97.88;38.00;;;17.10;99.90;;;;;;5055975;28;20029;-73
2023/08/18 05:14:01;;;;;;;101.50;37.80;;;;;;;;;;5055892;28;20029;-72
2023/08/18 05:16:27;;;;;;;115.45;42.47;;;;;;;;;;5055848;28;20462;-73
2023/08/18 05:18:53;;;;;;;109.68;40.60;;;;;;;;;;5055407;28;20028;-71
2023/08/18 05:21:19;;;;;;;113.35;40.33;;;;;;;;;;5055669;28;20047;-71
2023/08/18 05:23:45;;;;;;;104.95;37.88;;;;;;;;;;5055048;28;20032;-72
2023/08/18 05:26:11;;;;;;;87.60;34.67;;;;;;;;;;5054935;28;20112;-72
2023/08/18 05:28:37;;;;;;;88.03;32.90;;;;;;;;;;5055181;28;20116;-73
2023/08/18 05:31:03;;;;;;;75.90;31.70;;;;;;;;;;5055563;28;20132;-72
2023/08/18 05:33:29;;;;;;;69.00;29.27;;;;;;;;;;5055072;28;20064;-72
2023/08/18 05:35:59;;;;;;;63.00;27.02;;;;;;;;;;5055100;28;20108;-72
2023/08/18 05:38:25;;;;;;;63.28;26.88;;;;;;;;;;5055041;28;20028;-73
2023/08/18 05:40:52;;;;;;;56.97;26.90;;;;;;;;;;5055204;28;20051;-73
2023/08/18 05:43:18;;;;;;;52.38;24.83;;;;;;;;;;5054900;28;20025;-72
2023/08/18 05:45:46;;;;;;;51.65;24.52;;;;;;;;;;5054992;28;20463;-72
2023/08/18 05:48:12;;;;;;;44.38;22.35;;;;;;;;;;5054109;28;20084;-73
2023/08/18 05:50:38;;;;;;;41.83;20.52;;;;;;;;;;5054803;28;20384;-72
2023/08/18 05:53:04;;;;;;;42.40;21.13;;;;;;;;;;5054610;28;20025;-72
2023/08/18 05:55:30;;;;;;;43.90;21.45;;;;;;;;;;5054734;28;20392;-72
2023/08/18 05:58:00;;;;;;;39.60;20.15;;;;;;;;;;5054543;28;20356;-72
2023/08/18 06:00:26;;;;;;;36.97;20.92;;;;;;;;;;5054249;28;20029;-72
2023/08/18 06:02:53;;;;;;;37.50;19.95;;;;;;;;;;5053850;28;20064;-73
2023/08/18 06:05:19;;;;;;;35.75;19.77;;;;;;;;;;5053968;28;20063;-72
2023/08/18 06:07:45;;;;;;;36.67;20.05;;;;;;;;;;5053728;28;20033;-72
2023/08/18 06:10:11;;;;;;;34.42;19.58;;;;;;;;;;5052714;28;20063;-73
2023/08/18 06:12:38;;;;;;;34.22;20.75;;;;;;;;;;5051390;28;20037;-73
2023/08/18 06:15:04;;;;;;;38.85;20.58;;;;;;;;;;5053196;28;20064;-72
2023/08/18 06:17:30;;;;;;;33.58;19.38;;;;;;;;;;5052471;28;20039;-72
2023/08/18 06:19:56;;;;;;;35.05;19.60;;;;;;;;;;5053760;28;20108;-72
2023/08/18 06:22:22;;;;;;;36.08;19.48;;;;;;;;;;5054174;28;20038;-72
2023/08/18 06:24:48;;;;;;;35.83;20.05;;;;;;;;;;5053639;28;20025;-72
2023/08/18 06:27:14;;;;;;;34.90;20.00;;;;;;;;;;5053631;28;20029;-72
2023/08/18 06:29:40;;;;;;;28.05;17.63;;;;;;;;;;5053837;28;20029;-72
2023/08/18 06:32:06;;;;;;;31.20;17.48;;;17.60;99.90;;;;;;5053521;28;20024;-72
2023/08/18 06:34:31;;;;;;;28.25;17.45;;;17.70;99.90;;;;;;5050597;28;20040;-73
2023/08/18 06:36:57;;;;;;;27.10;16.17;;;17.70;99.90;;;;;;5054318;28;20115;-72
2023/08/18 06:39:22;;;;;;;27.80;17.10;;;17.70;99.90;;;;;;5052928;28;20500;-72
2023/08/18 06:41:48;;;;;;;30.05;16.98;;;17.70;99.90;;;;;;5048802;28;20033;-72
2023/08/18 06:44:14;;;;;;;25.58;16.52;;;17.70;99.90;;;;;;5052735;28;20040;-72
2023/08/18 06:46:40;;;;;;;21.85;14.95;;;;;;;;;;5052773;28;20123;-72
2023/08/18 06:49:06;;;;;;;26.05;16.35;;;;;;;;;;5052858;28;20029;-72
2023/08/18 06:51:32;;;;;;;23.65;14.57;;;;;;;;;;5053201;28;20425;-71
2023/08/18 06:53:58;;;;;;;22.63;14.90;;;;;;;;;;5053099;28;20037;-71
2023/08/18 06:56:24;;;;;;;23.42;14.82;;;;;;;;;;5052349;28;20033;-71
2023/08/18 06:58:49;;;;;;;23.77;15.32;;;18.10;99.90;;;;;;5055881;28;20029;-72
2023/08/18 07:01:15;;;;;;;21.80;14.25;;;18.10;99.90;;;;;;5055049;28;20087;-72
2023/08/18 07:03:41;;;;;;;23.45;15.00;;;18.00;99.90;;;;;;5051666;28;20025;-71
2023/08/18 07:06:08;;;;;;;17.58;13.23;;;18.00;99.90;;;;;;5052417;28;20021;-72
2023/08/18 07:08:34;;;;;;;22.35;14.50;;;18.10;99.90;;;;;;5052580;28;20032;-72
2023/08/18 07:11:00;;;;;;;18.27;12.88;;;18.10;99.90;;;;;;5052118;28;20028;-71
2023/08/18 07:13:26;;;;;;;19.50;13.07;;;18.20;99.90;;;;;;5052461;28;20525;-71
2023/08/18 07:15:51;;;;;;;19.02;14.25;;;18.30;99.90;;;;;;5053251;28;20044;-71
2023/08/18 07:18:17;;;;;;;21.05;14.10;;;18.30;99.90;;;;;;5053813;28;20024;-71
2023/08/18 07:20:44;;;;;;;23.98;15.13;;;18.20;99.90;;;;;;5056791;28;20071;-72
2023/08/18 07:23:10;;;;;;;21.88;13.93;;;18.20;99.90;;;;;;5057714;28;20471;-72
2023/08/18 07:25:37;;;;;;;20.85;14.50;;;18.40;99.90;;;;;;5056509;28;20025;-71
2023/08/18 07:28:04;;;;;;;19.52;14.00;;;18.30;99.90;;;;;;5056698;28;20032;-72
2023/08/18 07:30:29;;;;;;;22.42;14.98;;;18.40;99.90;;;;;;5056095;28;20016;-71
2023/08/18 07:32:56;;;;;;;23.02;14.50;;;18.30;99.90;;;;;;5056271;28;20048;-73
2023/08/18 07:35:22;;;;;;;23.38;15.50;;;18.40;99.90;;;;;;5057017;28;20082;-72
2023/08/18 07:37:47;;;;;;;24.48;14.63;;;18.30;99.90;;;;;;5054326;28;20098;-71
2023/08/18 07:40:13;;;;;;;23.10;15.95;;;18.30;99.90;;;;;;5054295;28;20033;-72
2023/08/18 07:42:40;;;;;;;24.58;15.43;;;18.40;99.90;;;;;;5055488;28;20028;-71
2023/08/18 07:45:07;;;;;;;24.10;15.90;;;18.40;99.90;;;;;;5054655;28;20372;-72
2023/08/18 07:47:38;;;;;;;25.85;16.80;;;18.40;99.90;;;;;;5054283;28;20063;-72
2023/08/18 07:50:05;;;;;;;24.05;15.90;;;18.40;99.90;;;;;;5054237;28;20029;-71
2023/08/18 07:52:31;;;;;;;30.80;17.98;;;18.50;99.90;;;;;;5054413;28;20029;-72
2023/08/18 07:54:56;;;;;;;25.10;16.92;;;18.40;99.90;;;;;;5056149;28;20028;-72
2023/08/18 07:57:22;;;;;;;27.63;17.23;;;18.50;99.90;;;;;;5056219;28;20041;-71
2023/08/18 07:59:48;;;;;;;26.80;16.50;;;18.50;99.90;;;;;;5056551;28;20028;-72
2023/08/18 08:02:13;;;;;;;25.00;16.52;;;18.70;99.90;;;;;;5055847;28;20041;-71
2023/08/18 08:04:39;;;;;;;26.35;15.68;;;18.70;99.90;;;;;;5055863;28;20029;-72
2023/08/18 08:07:04;;;;;;;26.00;17.70;;;18.80;99.90;;;;;;5055944;28;20445;-72
2023/08/18 08:09:30;;;;;;;21.83;14.65;;;18.90;99.90;;;;;;5056051;28;20479;-72
2023/08/18 08:11:56;;;;;;;23.40;15.90;;;18.90;99.90;;;;;;5056099;28;20040;-72
2023/08/18 08:14:22;;;;;;;20.95;14.02;;;19.00;99.90;;;;;;5056187;28;20078;-72
2023/08/18 08:16:47;;;;;;;25.15;15.75;;;18.90;99.90;;;;;;5056069;28;20040;-72
2023/08/18 08:19:13;;;;;;;25.25;16.10;;;18.90;99.90;;;;;;5061395;28;20033;-73
2023/08/18 08:21:40;;;;;;;26.05;16.08;;;18.90;99.90;;;;;;5056728;28;20029;-72
2023/08/18 08:24:07;;;;;;;23.35;15.27;;;18.90;99.90;;;;;;5055523;28;20053;-72
2023/08/18 08:26:33;;;;;;;23.75;15.60;;;19.00;99.90;;;;;;5056632;28;20036;-72
2023/08/18 08:28:58;;;;;;;25.60;16.85;;;19.00;99.90;;;;;;5056661;28;20032;-72
2023/08/18 08:31:24;;;;;;;23.08;15.60;;;19.00;99.90;;;;;;5055044;28;20076;-72
2023/08/18 08:33:50;;;;;;;28.52;17.75;;;19.10;99.90;;;;;;5056069;28;20448;-72
2023/08/18 08:36:15;;;;;;;25.80;16.92;;;19.00;99.90;;;;;;5055750;28;20032;-72
2023/08/18 08:38:42;;;;;;;27.20;17.40;;;19.20;99.90;;;;;;5055692;28;20095;-72
2023/08/18 08:41:08;;;;;;;28.02;17.02;;;19.20;99.90;;;;;;5036415;28;20521;-72
2023/08/18 08:43:34;;;;;;;22.67;16.30;;;19.30;99.90;;;;;;5035241;28;20033;-72
2023/08/18 08:46:00;;;;;;;22.95;16.52;;;19.30;99.90;;;;;;5036518;28;20036;-72
2023/08/18 08:48:34;;;;;;;26.52;18.35;;;19.40;99.90;;;;;;5036193;28;20025;-72
2023/08/18 08:51:03;;;;;;;28.00;17.48;;;19.40;99.90;;;;;;5034714;28;20563;-72
2023/08/18 08:53:35;;;;;;;27.77;18.88;;;19.40;99.90;;;;;;5035735;28;20387;-72
2023/08/18 08:56:02;;;;;;;27.38;18.50;;;19.40;99.90;;;;;;5034981;28;20033;-72
2023/08/18 08:58:31;;;;;;;25.20;17.35;;;19.40;99.90;;;;;;5034624;28;20040;-72
2023/08/18 09:01:01;;;;;;;26.33;18.55;;;19.60;99.90;;;;;;5034929;28;20128;-72
2023/08/18 09:03:28;;;;;;;31.10;17.92;;;19.70;99.90;;;;;;5034188;28;20390;-73
2023/08/18 09:05:54;;;;;;;26.35;19.13;;;19.90;99.90;;;;;;5034299;28;20030;-72
2023/08/18 09:08:21;;;;;;;27.98;17.85;;;20.00;99.90;;;;;;5035138;28;20087;-72
2023/08/18 09:10:47;;;;;;;24.92;17.42;;;20.00;99.90;;;;;;5034632;28;20037;-73
2023/08/18 09:13:13;;;;;;;25.33;17.33;;;20.00;99.90;;;;;;5034639;28;20128;-72
2023/08/18 09:15:44;;;;;;;22.60;16.85;;;20.40;99.90;;;;;;5035001;28;20041;-72
2023/08/18 09:18:11;;;;;;;20.73;16.00;;;20.30;99.90;;;;;;5035342;28;20092;-72
2023/08/18 09:20:37;;;;;;;22.25;16.40;;;20.60;99.90;;;;;;5034967;28;20073;-72
2023/08/18 09:23:04;;;;;;;22.35;16.65;;;20.60;99.90;;;;;;5035854;28;20127;-72
2023/08/18 09:25:33;;;;;;;18.27;14.80;;;20.70;99.90;;;;;;5034746;28;20034;-72
2023/08/18 09:27:58;;;;;;;19.48;15.80;;;20.90;99.90;;;;;;5034923;28;20029;-73
2023/08/18 09:30:24;;;;;;;23.15;16.88;;;20.90;99.90;;;;;;5034341;28;20245;-72
2023/08/18 09:32:51;;;;;;;22.25;16.67;;;21.00;99.90;;;;;;5033809;28;20025;-72
2023/08/18 09:35:21;;;;;;;18.92;14.73;;;21.10;99.90;;;;;;5035063;28;20056;-73
2023/08/18 09:37:56;;;;;;;20.80;14.73;;;21.40;99.90;;;;;;5034248;28;20105;-73
2023/08/18 09:40:22;;;;;;;19.63;14.25;;;21.50;99.90;;;;;;5035208;28;20087;-73
2023/08/18 09:42:48;;;;;;;19.23;15.05;;;21.80;99.90;;;;;;5032458;28;20033;-73
2023/08/18 09:45:14;;;;;;;22.23;15.32;;;22.00;99.90;;;;;;5034342;28;20025;-72
2023/08/18 09:47:42;;;;;;;19.88;14.18;;;22.00;99.90;;;;;;5034391;28;20090;-72
2023/08/18 09:50:10;;;;;;;18.27;14.43;;;22.20;99.90;;;;;;5034107;28;20034;-72
2023/08/18 09:52:38;;;;;;;20.67;15.05;;;22.10;99.90;;;;;;5034003;28;20384;-72
2023/08/18 09:55:25;;;;;;;20.15;14.75;;;22.00;99.90;;;;;;5034288;28;20029;-72
2023/08/18 09:58:19;;;;;;;19.35;14.77;;;22.30;99.90;;;;;;5033926;28;20065;-72
2023/08/18 10:00:46;;;;;;;18.25;13.43;;;22.60;99.90;;;;;;5033900;28;20132;-72
2023/08/18 10:03:16;;;;;;;17.88;13.98;;;22.70;99.90;;;;;;5033772;28;20116;-73
2023/08/18 10:05:43;;;;;;;18.05;14.65;;;23.10;94.10;;;;;;5034327;28;20026;-73
2023/08/18 10:08:09;;;;;;;16.58;13.02;;;23.00;81.50;;;;;;5034178;28;20017;-75
2023/08/18 10:10:36;;;;;;;14.57;12.55;;;23.30;71.10;;;;;;5033463;28;20025;-73
2023/08/18 10:13:03;;;;;;;14.75;13.18;;;23.40;89.30;;;;;;5033381;28;20040;-73
2023/08/18 10:15:29;;;;;;;16.17;12.40;;;23.90;42.10;;;;;;5033176;28;20060;-73
2023/08/18 10:17:56;;;;;;;15.95;12.40;;;24.30;11.80;;;;;;5032791;28;20379;-73
2023/08/18 10:20:26;;;;;;;15.05;12.68;;;24.50;4.80;;;;;;5033979;28;20029;-73
2023/08/18 10:22:53;;;;;;;14.35;12.07;;;24.70;1.00;;;;;;5046539;28;20060;-73
2023/08/18 10:25:29;;;;;;;16.75;12.90;;;24.60;1.00;;;;;;5036110;28;20029;-73
2023/08/18 10:27:54;;;;;;;13.30;10.60;;;24.90;1.00;;;;;;5032747;28;20025;-71
2023/08/18 10:33:04;;;;;;;15.75;12.10;;;25.80;1.00;;;;;;5111291;27;20305;-74
2023/08/18 10:35:30;;;;;;;13.27;11.30;;;26.60;1.00;;;;;;5111998;28;20037;-74
2023/08/18 10:37:58;;;;;;;16.05;10.75;;;27.10;99.90;;;;;;5109286;28;20024;-73
2023/08/18 10:40:25;;;;;;;11.45;10.38;;;27.40;99.90;;;;;;5109844;28;20027;-73
2023/08/18 10:42:56;;;;;;;12.52;11.00;;;27.60;99.90;;;;;;5110336;28;20031;-73
2023/08/18 10:45:24;;;;;;;11.60;10.50;;;27.40;99.90;;;;;;5109937;28;20489;-73
2023/08/18 10:47:50;;;;;;;14.10;11.35;;;27.20;99.90;;;;;;5109862;28;20123;-73
2023/08/18 10:50:17;;;;;;;12.07;9.93;;;27.00;99.90;;;;;;5111153;28;20432;-72
2023/08/18 10:52:42;;;;;;;12.77;11.30;;;26.90;99.90;;;;;;5097242;28;20028;-73
2023/08/18 10:55:08;;;;;;;13.25;10.40;;;26.50;1.00;;;;;;5109913;28;20028;-72
2023/08/18 10:57:34;;;;;;;13.77;12.30;;;26.60;1.00;;;;;;5110849;28;20044;-72
2023/08/18 11:00:00;;;;;;;13.18;11.82;;;26.80;99.90;;;;;;5111038;28;20401;-72
2023/08/18 11:02:26;;;;;;;15.20;12.00;;;26.70;99.90;;;;;;5111248;28;20024;-72
2023/08/18 11:04:51;;;;;;;13.27;11.38;;;26.70;1.00;;;;;;5110473;28;20036;-72
2023/08/18 11:07:20;;;;;;;14.05;12.65;;;26.70;1.00;;;;;;5110818;28;20031;-72
2023/08/18 11:09:46;;;;;;;12.45;11.15;;;26.70;1.00;;;;;;5110047;28;20054;-72
2023/08/18 11:12:13;;;;;;;15.05;12.68;;;27.20;1.00;;;;;;5109766;28;20110;-71
2023/08/18 11:14:39;;;;;;;12.80;11.60;;;27.00;99.90;;;;;;5110375;28;20058;-72
2023/08/18 11:17:05;;;;;;;14.23;12.68;;;26.80;1.00;;;;;;5109803;28;20553;-72
2023/08/18 11:19:30;;;;;;;15.85;14.18;;;27.00;1.00;;;;;;5110231;28;20030;-71
2023/08/18 11:21:57;;;;;;;17.48;14.15;;;26.90;1.00;;;;;;5110696;28;20035;-72
2023/08/18 11:24:24;;;;;;;15.18;13.10;;;26.90;1.00;;;;;;5109544;28;20028;-72
2023/08/18 11:26:50;;;;;;;14.10;12.80;;;27.20;1.00;;;;;;5108908;28;20051;-71
2023/08/18 11:29:16;;;;;;;14.52;13.10;;;27.20;1.00;;;;;;5109446;28;20066;-71
2023/08/18 11:31:45;;;;;;;12.48;11.13;;;27.60;1.00;;;;;;5109318;28;20104;-71
2023/08/18 11:34:11;;;;;;;13.35;11.65;;;27.90;99.90;;;;;;5109452;27;20019;-72
2023/08/18 11:36:39;;;;;;;14.10;12.57;;;27.90;99.90;;;;;;5109872;28;20106;-72
2023/08/18 11:39:07;;;;;;;12.68;11.38;;;27.90;99.90;;;;;;5107914;28;20165;-71
2023/08/18 11:41:38;;;;;;;13.68;12.38;;;28.10;99.90;;;;;;5108337;28;20024;-71
2023/08/18 11:44:07;;;;;;;13.20;11.88;;;27.70;99.90;;;;;;5097810;28;20123;-71
2023/08/18 11:46:35;;;;;;;14.57;12.88;;;27.60;99.90;;;;;;5096451;28;20034;-72
2023/08/18 11:49:02;;;;;;;11.77;10.57;;;27.50;99.90;;;;;;5096585;28;20028;-71
2023/08/18 11:51:28;;;;;;;13.55;11.60;;;27.70;1.00;;;;;;5093323;28;20069;-71
2023/08/18 11:53:54;;;;;;;12.40;11.20;;;27.60;99.90;;;;;;5095662;28;20016;-72
2023/08/18 11:56:20;;;;;;;10.90;9.77;;;27.30;99.90;;;;;;5095622;28;20405;-71
2023/08/18 11:58:46;;;;;;;12.57;10.93;;;27.70;1.00;;;;;;5095409;28;20020;-71
2023/08/18 12:01:11;;;;;;;10.13;9.10;;;28.00;99.90;;;;;;5095426;28;20024;-71
2023/08/18 12:03:37;;;;;;;10.25;8.60;;;28.00;99.90;;;;;;5093972;28;20055;-71
2023/08/18 12:06:04;;;;;;;10.50;9.43;;;28.20;1.00;;;;;;5094885;28;20539;-71
2023/08/18 12:08:30;;;;;;;8.40;7.63;;;28.20;99.90;;;;;;5094958;28;20028;-71
2023/08/18 12:10:57;;;;;;;11.13;9.88;;;28.50;1.00;;;;;;5094946;28;20036;-71
2023/08/18 12:13:27;;;;;;;10.70;8.30;;;28.20;99.90;;;;;;5095694;28;20046;-72
2023/08/18 12:15:53;;;;;;;11.57;8.98;;;28.20;99.90;;;;;;5096282;28;20036;-71
2023/08/18 12:18:19;;;;;;;10.52;9.35;;;28.30;99.90;;;;;;5094140;28;20037;-71
2023/08/18 12:20:45;;;;;;;11.40;8.48;;;28.00;99.90;;;;;;5105809;28;20402;-71
2023/08/18 12:23:10;;;;;;;8.70;7.90;;;28.20;99.90;;;;;;5116126;28;20161;-71
2023/08/18 12:25:36;;;;;;;9.70;8.23;;;28.30;99.90;;;;;;5098367;28;20028;-71
2023/08/18 12:28:03;;;;;;;8.57;7.75;;;28.60;99.90;;;;;;5096148;28;20016;-71
2023/08/18 12:30:29;;;;;;;8.43;7.57;;;28.60;99.90;;;;;;5102726;28;20053;-71
2023/08/18 12:32:55;;;;;;;9.98;7.78;;;28.60;99.90;;;;;;5099470;28;20044;-71
2023/08/18 12:35:20;;;;;;;10.05;8.20;;;28.80;99.90;;;;;;5109680;28;20065;-71
2023/08/18 12:37:46;;;;;;;8.82;7.25;;;28.70;99.90;;;;;;5097107;28;20032;-71
2023/08/18 12:40:12;;;;;;;8.57;7.60;;;28.80;99.90;;;;;;5094645;28;20443;-71
2023/08/18 12:42:38;;;;;;;7.95;7.15;;;28.80;99.90;;;;;;5099478;28;20066;-71
2023/08/18 12:45:05;;;;;;;11.20;8.35;;;29.10;99.90;;;;;;5104698;28;20055;-71
2023/08/18 12:47:31;;;;;;;7.90;7.10;;;28.80;49.80;;;;;;5095689;28;20020;-71
2023/08/18 12:49:58;;;;;;;12.02;7.78;;;29.10;99.90;;;;;;5094885;28;20031;-72
2023/08/18 12:52:24;;;;;;;10.93;7.00;;;29.30;1.00;;;;;;5098021;28;20477;-72
2023/08/18 12:54:49;;;;;;;8.30;6.93;;;29.40;99.90;;;;;;5089797;28;20043;-72
2023/08/18 12:57:15;;;;;;;8.80;7.72;;;29.60;99.90;;;;;;5099662;28;20028;-71
2023/08/18 12:59:40;;;;;;;11.73;7.55;;;29.40;99.90;;;;;;5093976;28;20025;-71
2023/08/18 13:02:06;;;;;;;8.38;7.57;;;29.20;99.90;;;;;;5094680;28;20031;-74
2023/08/18 13:04:32;;;;;;;8.98;7.70;;;29.30;99.90;;;;;;5094479;28;20038;-71
2023/08/18 13:06:58;;;;;;;10.05;7.47;;;29.20;99.90;;;;;;5094022;28;20478;-71